Latest Weather Observations for Mount Isa

IDQ60801

Issued at 8:32 pm EST Friday 19 December 2014 (issued every 30 minutes, with the page automatically refreshed every 10 minutes)

About weather observations | Map of weather stations | Latest weather observations for QLD | Other Formats
Station Details ID: 029127 Name: MOUNT ISA AERO Lat: -20.68 Lon: 139.49 Height: 340.3 m
Data from the previous 72 hours. | See also: Recent months at Mount Isa
Date/Time
EST
Temp
°C
App
Temp
°C
Dew
Point
Rel
Hum
%
Delta-T
°C
Wind Press
QNH
hPa
Press
MSL
hPa
Rain
since 9 am
mm
Dir
 
Spd
km/h
Gust
km/h
Spd
kts
Gust
kts
19/08:30pm 33.2 30.6 13.9 31 11.9 SSE 20 28 11 15 1011.8 - 0.0
19/08:00pm 33.4 30.6 14.2 31 11.9 SSE 22 32 12 17 1011.3 - 0.0
19/07:30pm 33.8 31.4 13.7 29 12.4 SSE 19 26 10 14 1010.8 - 0.0
19/07:00pm 34.2 31.1 13.4 28 12.8 SSE 22 32 12 17 1010.3 - 0.0
19/06:30pm 35.0 32.2 14.2 28 13.0 SSE 22 33 12 18 1009.8 - 0.0
19/06:00pm 36.0 33.1 14.1 27 13.7 SSE 22 35 12 19 1009.6 1007.1 0.0
19/05:30pm 35.5 32.1 13.8 27 13.5 S 24 32 13 17 1009.5 - 0.0
19/05:00pm 36.5 34.6 14.2 26 14.0 SSE 17 28 9 15 1009.3 - 0.0
19/04:30pm 36.6 35.2 13.4 25 14.4 S 13 19 7 10 1009.6 - 0.0
19/04:00pm 36.4 35.5 13.6 25 14.2 SSE 11 19 6 10 1009.7 - 0.0
19/03:30pm 36.3 35.0 13.6 25 14.1 S 13 19 7 10 1010.1 - 0.0
19/03:00pm 36.8 35.5 13.7 25 14.4 ESE 13 17 7 9 1010.6 1008.2 0.0
19/02:30pm 34.9 34.3 13.5 27 13.2 ESE 9 22 5 12 1011.0 - 0.0
19/02:00pm 36.1 35.2 13.8 26 13.9 SE 11 30 6 16 1011.5 - 0.0
19/01:30pm 36.2 36.2 15.1 28 13.4 SW 9 15 5 8 1011.9 - 0.0
19/01:00pm 35.1 34.8 14.5 29 12.9 N 9 15 5 8 1012.4 - 0.0
19/12:30pm 34.3 34.1 14.7 30 12.3 SW 9 15 5 8 1012.9 - 0.0
19/12:00pm 34.7 34.9 14.8 30 12.5 WSW 7 17 4 9 1013.4 1011.0 0.0
19/11:30am 33.5 32.3 15.0 32 11.6 SSE 15 19 8 10 1013.8 - 0.0
19/11:00am 32.6 32.3 15.4 35 10.8 S 11 19 6 10 1014.1 - 0.0
19/10:30am 31.8 31.6 15.6 37 10.2 SE 11 17 6 9 1014.3 - 0.0
19/10:00am 30.8 31.0 15.7 40 9.5 S 9 15 5 8 1014.5 - 0.0
19/09:30am 29.8 30.3 16.5 44 8.4 SE 9 15 5 8 1014.6 - 0.0
19/09:00am 29.3 29.5 16.7 46 8.0 SSE 11 15 6 8 1014.7 1012.2 0.0
19/08:30am 28.8 29.4 16.8 48 7.6 SSE 9 15 5 8 1014.6 - 0.0
19/08:00am 28.0 28.1 17.5 52 6.7 SSE 13 15 7 8 1014.7 - 0.0
19/07:30am 26.7 27.7 17.8 58 5.7 S 9 13 5 7 1014.4 - 0.0
19/07:00am 25.3 27.6 17.7 62 4.8 WNW 2 7 1 4 1014.1 - 0.0
19/06:30am 22.1 25.0 18.1 78 2.5 CALM 0 0 0 0 1013.8 - 0.0
19/06:00am 21.1 23.8 17.7 81 2.1 CALM 0 0 0 0 1013.3 1010.9 0.0
19/05:30am 21.8 24.5 17.7 77 2.6 CALM 0 0 0 0 1012.9 - 0.0
19/05:00am 21.5 24.2 17.7 79 2.4 CALM 0 6 0 3 1012.4 - 0.0
19/04:30am 22.7 24.8 18.1 75 2.9 ESE 4 7 2 4 1012.3 - 0.0
19/04:00am 23.6 25.4 18.8 74 3.1 ENE 7 9 4 5 1012.0 - 0.0
19/03:30am 24.0 24.9 18.4 71 3.6 NE 11 15 6 8 1012.1 - 0.0
19/03:00am 24.6 25.6 18.7 69 3.8 NE 11 13 6 7 1012.0 1009.5 0.0
19/02:30am 24.8 26.1 19.3 71 3.6 NE 11 13 6 7 1012.1 - 0.0
19/02:00am 25.3 26.1 19.1 68 4.0 ENE 13 19 7 10 1012.3 - 0.0
19/01:30am 25.7 26.7 18.6 65 4.6 E 11 17 6 9 1012.4 - 0.0
19/01:00am 26.0 26.6 18.6 63 4.8 E 13 17 7 9 1012.8 - 0.0
19/12:30am 26.4 26.0 18.1 60 5.3 E 17 26 9 14 1013.3 - 0.0
19/12:00am 26.6 27.0 18.2 60 5.4 E 13 19 7 10 1013.7 1011.3 0.0
 
Date/Time
EST
Temp
°C
App
Temp
°C
Dew
Point
Rel
Hum
%
Delta-T
°C
Wind Press
QNH
hPa
Press
MSL
hPa
Rain
since 9 am
mm
Dir
 
Spd
km/h
Gust
km/h
Spd
kts
Gust
kts
18/11:30pm 26.7 27.5 18.1 59 5.5 ESE 11 15 6 8 1013.9 - 0.0
18/11:00pm 26.8 27.1 17.9 58 5.7 E 13 17 7 9 1013.9 - 0.0
18/10:30pm 27.1 26.6 17.7 56 6.0 SE 17 24 9 13 1013.8 - 0.0
18/10:00pm 27.6 27.1 17.9 55 6.2 SSE 17 24 9 13 1013.3 - 0.0
18/09:30pm 27.8 27.3 17.8 54 6.4 SE 17 24 9 13 1012.7 - 0.0
18/09:00pm 27.9 28.2 18.0 55 6.4 ESE 13 19 7 10 1012.4 1009.9 0.0
18/08:30pm 28.1 28.3 17.6 53 6.7 ESE 13 19 7 10 1012.2 - 0.0
18/08:00pm 28.4 28.6 17.6 52 6.9 ESE 13 17 7 9 1012.1 - 0.0
18/07:30pm 29.0 28.8 16.7 47 7.8 E 13 20 7 11 1012.0 - 0.0
18/07:00pm 29.3 29.5 16.7 46 8.0 SE 11 15 6 8 1011.7 - 0.0
18/06:30pm 29.6 28.3 16.7 45 8.2 S 19 24 10 13 1011.5 - 0.0
18/06:00pm 29.9 28.0 16.7 45 8.4 S 22 30 12 16 1011.3 1008.8 0.0
18/05:30pm 30.6 27.9 16.6 43 8.9 S 26 33 14 18 1010.9 - 0.0
18/05:00pm 30.7 29.1 16.6 42 9.0 S 20 28 11 15 1010.4 - 0.0
18/04:32pm 31.1 27.6 16.5 41 9.3 SSW 30 48 16 26 1010.6 - 0.0
18/04:30pm 31.2 27.2 16.6 41 9.3 SSW 33 48 18 26 1010.6 - 0.0
18/04:26pm 31.3 27.8 16.6 41 9.4 SSW 30 48 16 26 1010.7 - 0.0
18/04:00pm 31.2 27.2 16.6 41 9.3 S 33 48 18 26 1010.9 - 0.0
18/03:51pm 31.4 26.7 16.9 41 9.3 S 37 41 20 22 1011.0 - 0.0
18/03:30pm 31.8 27.5 17.0 41 9.5 SSW 35 48 19 26 1011.5 - 0.0
18/03:00pm 33.1 29.6 17.4 39 10.2 SSW 32 48 17 26 1011.9 1009.4 0.0
18/02:42pm 32.6 28.3 17.7 41 9.7 SW 37 46 20 25 1012.2 - 0.0
18/02:30pm 31.6 27.0 18.1 44 8.8 S 39 52 21 28 1012.3 - 0.0
18/02:00pm 32.0 27.1 18.2 43 9.0 S 41 52 22 28 1012.8 - 0.0
18/01:30pm 30.9 26.9 18.5 47 8.1 SSW 37 52 20 28 1013.0 - 0.0
18/01:00pm 31.2 27.8 18.9 48 8.1 SSW 35 44 19 24 1013.0 - 0.0
18/12:52pm 31.2 27.6 19.3 49 7.9 S 37 46 20 25 1013.2 - 0.0
18/12:30pm 31.0 27.5 19.6 50 7.6 SSW 37 50 20 27 1013.1 - 0.0
18/12:00pm 29.7 26.9 20.3 57 6.3 SSW 35 46 19 25 1013.0 1010.5 0.0
18/11:30am 28.5 26.4 21.6 66 4.7 SSW 35 48 19 26 1013.4 - 0.0
18/11:00am 26.3 23.6 22.0 77 2.9 SSW 39 50 21 27 1013.3 - 0.0
18/10:30am 28.7 24.4 20.3 60 5.6 SSW 43 56 23 30 1012.6 - 0.0
18/10:23am 29.8 25.7 19.9 55 6.6 SW 41 54 22 29 1012.2 - 0.0
18/10:18am 35.1 32.7 14.5 29 12.9 WNW 20 26 11 14 1011.5 - 0.0
18/10:00am 35.6 33.0 14.8 28 13.1 NW 22 30 12 16 1010.9 - 0.0
18/09:30am 35.5 33.4 15.1 29 12.9 NW 20 32 11 17 1010.6 - 0.0
18/09:00am 35.4 33.3 16.3 32 12.3 WNW 22 30 12 16 1010.5 1008.1 0.0
18/08:30am 33.7 32.9 18.4 40 10.1 NW 20 28 11 15 1010.4 - 0.0
18/08:00am 31.0 33.7 20.6 54 7.0 N 7 9 4 5 1010.3 - 0.0
18/07:30am 30.8 32.9 20.9 55 6.7 NNE 11 13 6 7 1010.1 - 0.0
18/07:00am 30.2 33.3 21.0 58 6.2 N 6 7 3 4 1009.7 - 0.0
18/06:30am 29.1 31.3 21.1 62 5.4 N 11 13 6 7 1009.3 - 0.0
18/06:00am 29.3 32.4 21.5 63 5.3 N 7 9 4 5 1008.8 1006.3 0.0
18/05:30am 29.7 32.9 21.6 61 5.5 N 7 9 4 5 1008.4 - 0.0
18/05:00am 30.1 33.0 21.1 58 6.1 N 7 9 4 5 1008.2 - 0.0
18/04:30am 30.5 32.9 20.9 56 6.5 N 9 13 5 7 1008.2 - 0.0
18/04:00am 30.6 33.5 20.7 55 6.7 NNE 6 9 3 5 1007.6 - 0.0
18/03:30am 29.9 32.1 20.4 56 6.4 NNW 9 11 5 6 1007.6 - 0.0
18/03:00am 28.9 31.5 20.4 60 5.7 N 7 9 4 5 1007.5 1005.0 0.0
18/02:30am 28.9 31.4 20.2 59 5.8 NNE 7 9 4 5 1007.4 - 0.0
18/02:00am 29.7 31.8 19.4 54 6.8 NNE 7 9 4 5 1007.5 - 0.0
18/01:30am 30.4 32.2 19.6 52 7.2 NE 9 11 5 6 1007.7 - 0.0
18/01:00am 30.9 33.0 19.3 50 7.7 NE 7 7 4 4 1007.9 - 0.0
18/12:30am 31.7 33.5 18.8 46 8.5 NNE 7 9 4 5 1008.2 - 0.0
18/12:00am 32.2 32.5 17.8 42 9.4 ENE 13 15 7 8 1008.5 1006.0 0.0
 
Date/Time
EST
Temp
°C
App
Temp
°C
Dew
Point
Rel
Hum
%
Delta-T
°C
Wind Press
QNH
hPa
Press
MSL
hPa
Rain
since 9 am
mm
Dir
 
Spd
km/h
Gust
km/h
Spd
kts
Gust
kts
17/11:30pm 33.8 33.6 16.7 36 11.0 N 13 17 7 9 1008.3 - 0.0
17/11:00pm 34.3 33.3 15.6 32 11.9 N 15 19 8 10 1008.3 - 0.0
17/10:30pm 32.9 30.8 13.7 31 11.8 NNE 17 24 9 13 1008.1 - 0.0
17/10:00pm 31.9 33.0 14.5 34 10.8 SW 2 6 1 3 1007.5 - 0.0
17/09:30pm 32.2 32.1 13.4 32 11.5 N 6 7 3 4 1007.4 - 0.0
17/09:00pm 31.5 33.7 16.5 40 9.6 CALM 0 0 0 0 1007.0 1004.5 0.0
17/08:30pm 32.1 33.8 15.2 36 10.6 CALM 0 0 0 0 1006.7 - 0.0
17/08:00pm 33.6 34.3 14.6 31 11.9 NNW 4 7 2 4 1006.3 - 0.0
17/07:30pm 35.5 35.6 14.5 28 13.2 NW 7 9 4 5 1006.0 - 0.0
17/07:00pm 37.2 36.3 12.5 22 15.2 N 9 13 5 7 1005.5 - 0.0
17/06:30pm 38.9 36.9 10.2 17 17.1 NW 11 15 6 8 1005.1 - 0.0
17/06:00pm 39.1 35.4 9.4 16 17.6 NNW 19 22 10 12 1004.8 1002.3 0.0
17/05:30pm 39.2 35.8 9.3 16 17.7 WNW 17 24 9 13 1004.6 - 0.0
17/05:00pm 40.3 36.7 10.0 16 18.1 WNW 19 28 10 15 1004.7 - 0.0
17/04:30pm 40.1 35.7 9.0 15 18.4 W 22 30 12 16 1005.1 - 0.0
17/04:00pm 40.5 37.0 10.1 16 18.2 NNW 19 28 10 15 1005.4 - 0.0
17/03:30pm 40.8 36.8 9.2 15 18.8 NW 20 30 11 16 1005.8 - 0.0
17/03:00pm 41.0 38.2 9.9 15 18.7 W 15 24 8 13 1006.3 1003.8 0.0
17/02:30pm 39.5 36.1 9.3 16 17.9 NNW 17 28 9 15 1006.6 - 0.0
17/02:00pm 38.6 37.2 11.0 19 16.7 N 9 20 5 11 1007.0 - 0.0
17/01:30pm 39.2 34.7 8.7 16 17.9 N 22 28 12 15 1007.3 - 0.0
17/01:00pm 38.8 35.2 8.5 16 17.7 NW 17 30 9 16 1007.8 - 0.0
17/12:30pm 39.8 34.9 8.3 15 18.4 NW 24 32 13 17 1008.2 - 0.0
17/12:00pm 38.6 34.0 8.1 15 17.7 NW 22 32 12 17 1008.4 1005.9 0.0
17/11:30am 38.7 34.5 8.3 16 17.7 WNW 20 30 11 16 1008.6 - 0.0
17/11:00am 39.0 33.9 10.6 18 17.1 NNW 28 35 15 19 1008.7 - 0.0
17/10:30am 37.8 33.7 11.4 20 16.0 NW 24 33 13 18 1009.0 - 0.0
17/10:00am 37.2 34.6 13.9 25 14.6 NW 20 32 11 17 1009.2 - 0.0
17/09:30am 35.0 32.3 14.6 29 12.8 NW 22 32 12 17 1009.4 - 0.0
17/09:00am 33.8 31.1 15.5 33 11.6 WNW 24 32 13 17 1009.5 1007.0 0.0
17/08:30am 33.0 31.2 16.0 36 10.8 NW 20 30 11 16 1009.3 - 0.0
17/08:00am 31.5 30.7 17.0 41 9.3 WNW 17 24 9 13 1009.1 - 0.0
17/07:30am 30.7 30.8 17.5 45 8.5 WNW 13 17 7 9 1008.9 - 0.0
17/07:00am 30.0 30.4 17.2 46 8.2 NNW 11 13 6 7 1008.7 - 0.0
17/06:30am 29.1 29.9 17.2 48 7.6 NNW 9 9 5 5 1008.4 - 0.0
17/06:00am 27.8 29.5 18.4 56 6.1 NNW 7 9 4 5 1007.9 1005.5 0.0
17/05:30am 28.4 29.5 17.1 50 7.2 N 7 9 4 5 1007.5 - 0.0
17/05:00am 29.0 29.8 18.2 52 7.0 NNW 11 13 6 7 1007.1 - 0.0
17/04:30am 29.3 30.0 17.1 47 7.8 N 9 9 5 5 1006.8 - 0.0
17/04:00am 29.1 31.3 18.3 52 7.0 N 4 6 2 3 1006.8 - 0.0
17/03:30am 30.4 31.5 17.2 45 8.5 N 7 11 4 6 1006.5 - 0.0
17/03:00am 31.2 32.0 17.4 43 8.9 N 9 11 5 6 1006.2 1003.7 0.0
17/02:30am 31.6 32.7 17.0 41 9.4 N 7 11 4 6 1006.2 - 0.0
17/02:00am 31.6 30.0 17.4 42 9.2 N 22 30 12 16 1006.2 - 0.0
17/01:30am 31.7 31.3 16.3 39 9.8 N 13 19 7 10 1006.2 - 0.0
17/01:00am 32.3 31.5 16.1 37 10.3 N 15 24 8 13 1006.5 - 0.0
17/12:30am 32.5 31.0 15.4 35 10.8 NNW 17 24 9 13 1006.6 - 0.0
17/12:00am 32.5 32.3 15.8 36 10.6 N 11 17 6 9 1006.8 1004.3 0.0
 
Date/Time
EST
Temp
°C
App
Temp
°C
Dew
Point
Rel
Hum
%
Delta-T
°C
Wind Press
QNH
hPa
Press
MSL
hPa
Rain
since 9 am
mm
Dir
 
Spd
km/h
Gust
km/h
Spd
kts
Gust
kts
16/11:30pm 32.5 32.9 16.4 38 10.3 N 9 11 5 6 1006.7 - 0.0
16/11:00pm 33.4 33.7 16.0 35 11.1 N 9 11 5 6 1006.5 - 0.0
16/10:30pm 34.9 34.0 13.6 27 13.2 NNE 11 13 6 7 1006.5 - 0.0
16/10:00pm 35.6 33.9 12.3 24 14.2 NNE 13 20 7 11 1006.4 - 0.0
16/09:30pm 34.5 33.1 12.2 26 13.5 NNE 11 13 6 7 1006.3 - 0.0
16/09:00pm 35.1 34.1 12.2 25 13.9 N 9 11 5 6 1006.0 1003.5 0.0

Other Formats:

Comma delimited format used in spreadsheet applications
http://www.bom.gov.au/fwo/IDQ60801/IDQ60801.94332.axf

JavaScript Object Notation format (JSON) in row-major order
http://www.bom.gov.au/fwo/IDQ60801/IDQ60801.94332.json